Time;durP1;ratioP1;P1;durP2;ratioP2;P2;SDS_P1;SDS_P2;PMS_P1;PMS_P2;Temp;Humidity;BMP_temperature;BMP_pressure;BME280_temperature;BME280_humidity;BME280_pressure;Samples;Min_cycle;Max_cycle;Signal;HPM_P1;HPM_P2
2023/06/05 00:00:42;;;;;;;6.75;5.13;;;10.00;99.90;;;;;;4980484;28;89411;-33
2023/06/05 00:03:07;;;;;;;8.63;6.55;;;9.90;99.90;;;;;;4979787;28;88628;-32
2023/06/05 00:05:33;;;;;;;11.50;5.13;;;9.90;99.90;;;;;;4980803;28;89186;-37
2023/06/05 00:07:58;;;;;;;7.28;5.07;;;9.90;99.90;;;;;;4980040;28;90379;-36
2023/06/05 00:10:24;;;;;;;15.05;5.60;;;9.90;99.90;;;;;;4979907;28;89921;-35
2023/06/05 00:12:50;;;;;;;6.55;5.18;;;9.90;99.90;;;;;;4979380;28;89420;-35
2023/06/05 00:15:16;;;;;;;9.02;5.82;;;9.80;99.90;;;;;;4980157;28;88517;-34
2023/06/05 00:17:41;;;;;;;10.57;5.45;;;9.70;99.90;;;;;;4980330;28;90107;-36
2023/06/05 00:20:09;;;;;;;7.65;5.32;;;9.70;99.90;;;;;;4979676;28;90023;-32
2023/06/05 00:22:35;;;;;;;7.67;5.07;;;9.70;99.90;;;;;;4980523;28;90132;-35
2023/06/05 00:25:01;;;;;;;10.38;4.68;;;9.60;99.90;;;;;;4980065;28;88169;-35
2023/06/05 00:27:28;;;;;;;7.35;4.80;;;9.50;99.90;;;;;;4979157;28;91213;-33
2023/06/05 00:29:54;;;;;;;6.13;4.90;;;9.50;99.90;;;;;;4979753;28;90162;-31
2023/06/05 00:32:19;;;;;;;7.45;4.88;;;9.50;99.90;;;;;;4980045;28;87886;-31
2023/06/05 00:34:46;;;;;;;9.00;5.55;;;9.50;99.90;;;;;;4980333;28;90305;-34
2023/06/05 00:37:13;;;;;;;10.90;5.50;;;9.40;99.90;;;;;;4979981;28;89827;-32
2023/06/05 00:39:40;;;;;;;8.70;4.55;;;9.40;99.90;;;;;;4979948;28;89595;-31
2023/06/05 00:42:08;;;;;;;11.43;5.40;;;9.40;99.90;;;;;;4979551;28;88504;-37
2023/06/05 00:44:33;;;;;;;6.65;4.70;;;9.40;99.90;;;;;;4982669;28;87627;-34
2023/06/05 00:46:59;;;;;;;16.50;7.20;;;9.40;99.90;;;;;;4984723;28;90183;-30
2023/06/05 00:49:25;;;;;;;8.48;5.93;;;9.40;99.90;;;;;;4982589;28;89596;-35
2023/06/05 00:51:51;;;;;;;8.20;5.97;;;9.30;99.90;;;;;;4983728;28;88529;-33
2023/06/05 00:54:17;;;;;;;10.23;6.05;;;9.30;99.90;;;;;;4983139;28;89183;-35
2023/06/05 00:56:43;;;;;;;6.43;4.97;;;9.30;99.90;;;;;;4983301;28;90072;-37
2023/06/05 00:59:09;;;;;;;7.80;6.15;;;9.30;99.90;;;;;;4983044;28;89632;-36
2023/06/05 01:01:36;;;;;;;10.52;5.55;;;9.30;99.90;;;;;;4982761;28;87633;-34
2023/06/05 01:04:01;;;;;;;6.43;4.95;;;9.30;99.90;;;;;;4983385;28;89833;-33
2023/06/05 01:06:30;;;;;;;10.38;6.07;;;9.20;99.90;;;;;;4983009;28;89880;-31
2023/06/05 01:08:57;;;;;;;15.57;7.30;;;9.10;99.90;;;;;;4983175;28;90828;-32
2023/06/05 01:11:31;;;;;;;8.35;5.85;;;9.10;99.90;;;;;;4983020;28;87566;-32
2023/06/05 01:14:17;;;;;;;11.73;5.78;;;9.00;99.90;;;;;;4983182;28;89956;-37
2023/06/05 01:16:47;;;;;;;8.48;6.32;;;9.00;99.90;;;;;;4981640;28;88938;-33
2023/06/05 01:19:17;;;;;;;10.07;5.78;;;9.00;99.90;;;;;;4982751;28;89940;-35
2023/06/05 01:21:43;;;;;;;11.77;5.68;;;9.00;99.90;;;;;;4983299;28;90443;-33
2023/06/05 01:24:08;;;;;;;10.05;6.03;;;9.00;99.90;;;;;;4982003;28;88296;-33
2023/06/05 01:26:52;;;;;;;9.15;5.95;;;9.00;99.90;;;;;;4982528;28;90329;-35
2023/06/05 01:29:25;;;;;;;12.88;6.25;;;9.10;99.90;;;;;;4982318;28;89845;-32
2023/06/05 01:31:54;;;;;;;9.57;6.07;;;9.00;99.90;;;;;;4983168;28;89238;-33
2023/06/05 01:34:20;;;;;;;16.77;5.97;;;8.90;99.90;;;;;;4982633;28;88351;-32
2023/06/05 01:36:47;;;;;;;13.57;6.40;;;9.00;99.90;;;;;;4982172;28;90323;-30
2023/06/05 01:39:14;;;;;;;11.80;5.93;;;9.00;99.90;;;;;;4982438;28;89500;-30
2023/06/05 01:41:41;;;;;;;9.93;5.13;;;9.00;99.90;;;;;;4982559;28;89085;-31
2023/06/05 01:44:08;;;;;;;11.68;5.70;;;9.00;99.90;;;;;;4982085;28;88935;-32
2023/06/05 01:46:35;;;;;;;20.25;7.03;;;9.00;99.90;;;;;;4982909;28;90430;-34
2023/06/05 01:49:02;;;;;;;12.68;6.72;;;9.00;99.90;;;;;;4982557;28;89715;-35
2023/06/05 01:51:28;;;;;;;9.40;6.40;;;9.00;99.90;;;;;;4982280;28;88835;-33
2023/06/05 01:53:54;;;;;;;9.10;5.90;;;9.00;99.90;;;;;;4981848;28;89475;-38
2023/06/05 01:56:19;;;;;;;8.70;5.35;;;9.00;99.90;;;;;;4982397;28;90354;-34
2023/06/05 01:58:47;;;;;;;9.25;5.70;;;9.00;99.90;;;;;;4981988;28;89012;-32
2023/06/05 02:01:15;;;;;;;10.02;6.75;;;9.00;99.90;;;;;;4982136;28;87880;-35
2023/06/05 02:03:47;;;;;;;14.63;6.93;;;8.90;99.90;;;;;;4982994;28;88230;-34
2023/06/05 02:06:14;;;;;;;17.48;6.20;;;8.90;99.90;;;;;;4982270;28;90000;-37
2023/06/05 02:08:40;;;;;;;7.88;6.05;;;8.90;99.90;;;;;;4981916;28;89856;-36
2023/06/05 02:11:09;;;;;;;8.85;6.35;;;8.90;99.90;;;;;;4981785;28;88688;-36
2023/06/05 02:13:37;;;;;;;11.80;6.25;;;8.90;99.90;;;;;;4982042;28;88401;-35
2023/06/05 02:16:03;;;;;;;14.17;5.40;;;8.90;99.90;;;;;;4981779;28;91289;-34
2023/06/05 02:18:29;;;;;;;7.70;5.45;;;8.90;99.90;;;;;;4982163;28;88169;-33
2023/06/05 02:20:56;;;;;;;6.63;4.53;;;8.90;99.90;;;;;;4982277;28;88841;-34
2023/06/05 02:23:23;;;;;;;9.98;5.80;;;8.90;99.90;;;;;;4981491;28;88795;-35
2023/06/05 02:25:49;;;;;;;10.98;6.45;;;8.80;99.90;;;;;;4982023;28;90277;-38
2023/06/05 02:28:15;;;;;;;14.60;7.43;;;8.80;99.90;;;;;;4981819;28;91650;-34
2023/06/05 02:30:44;;;;;;;7.38;5.55;;;8.80;99.90;;;;;;4981616;28;89232;-32
2023/06/05 02:33:10;;;;;;;;;;;8.80;99.90;;;;;;4981397;28;88182;-34
2023/06/05 02:35:36;;;;;;;10.95;6.72;;;8.80;99.90;;;;;;4983311;28;90100;-35
2023/06/05 02:38:06;;;;;;;10.95;6.43;;;8.80;99.90;;;;;;4981294;28;89885;-36
2023/06/05 02:40:32;;;;;;;15.07;6.00;;;8.80;99.90;;;;;;4981486;28;88643;-35
2023/06/05 02:42:57;;;;;;;10.15;5.68;;;8.70;99.90;;;;;;4981797;28;88342;-33
2023/06/05 02:45:23;;;;;;;6.75;5.13;;;8.80;99.90;;;;;;4980983;28;90290;-35
2023/06/05 02:47:49;;;;;;;9.48;5.18;;;8.70;99.90;;;;;;4980704;28;89535;-36
2023/06/05 02:50:14;;;;;;;17.58;6.30;;;8.60;99.90;;;;;;4981638;28;87989;-33
2023/06/05 02:52:40;;;;;;;13.95;6.93;;;8.70;99.90;;;;;;4981195;28;88389;-34
2023/06/05 02:55:07;;;;;;;12.07;6.22;;;8.70;99.90;;;;;;4979552;28;89755;-32
2023/06/05 02:57:40;;;;;;;9.57;5.25;;;8.70;99.90;;;;;;4961104;28;88921;-35
2023/06/05 03:00:17;;;;;;;8.68;5.05;;;8.60;99.90;;;;;;4974220;28;88039;-36
2023/06/05 03:02:48;;;;;;;9.88;5.82;;;8.60;99.90;;;;;;4981220;28;89561;-33
2023/06/05 03:05:24;;;;;;;9.32;6.43;;;8.70;99.90;;;;;;4980240;28;89627;-34
2023/06/05 03:07:52;;;;;;;10.10;7.43;;;8.60;99.90;;;;;;4980541;28;90531;-33
2023/06/05 03:10:20;;;;;;;8.88;5.38;;;8.60;99.90;;;;;;4980058;28;90363;-33
2023/06/05 03:12:45;;;;;;;11.50;6.95;;;8.50;99.90;;;;;;4980551;28;89603;-36
2023/06/05 03:15:11;;;;;;;10.88;6.20;;;8.50;99.90;;;;;;4981098;28;90341;-32
2023/06/05 03:17:37;;;;;;;10.82;5.18;;;8.50;99.90;;;;;;4980589;28;90381;-34
2023/06/05 03:20:03;;;;;;;7.45;5.22;;;8.50;99.90;;;;;;4980521;28;87666;-34
2023/06/05 03:22:30;;;;;;;13.85;5.47;;;8.60;99.90;;;;;;4979865;28;88861;-36
2023/06/05 03:24:55;;;;;;;13.88;6.47;;;8.70;99.90;;;;;;4979684;28;90614;-33
2023/06/05 03:27:21;;;;;;;9.85;5.85;;;8.70;99.90;;;;;;4980153;28;89625;-33
2023/06/05 03:29:46;;;;;;;11.60;6.93;;;8.70;99.90;;;;;;4979956;28;88267;-33
2023/06/05 03:32:12;;;;;;;9.63;5.95;;;8.60;99.90;;;;;;4980966;28;89569;-35
2023/06/05 03:34:38;;;;;;;12.02;5.57;;;8.60;99.90;;;;;;4980148;28;90513;-33
2023/06/05 03:37:04;;;;;;;7.38;4.65;;;8.70;99.90;;;;;;4980140;28;89433;-37
2023/06/05 03:39:29;;;;;;;8.82;5.38;;;8.70;99.90;;;;;;4979166;28;87605;-32
2023/06/05 03:41:55;;;;;;;7.70;4.97;;;8.70;99.90;;;;;;4978375;28;88795;-31
2023/06/05 03:44:22;;;;;;;24.20;7.10;;;8.70;99.90;;;;;;4978306;28;90551;-33
2023/06/05 03:46:48;;;;;;;11.65;6.80;;;8.70;99.90;;;;;;4978274;28;89764;-35
2023/06/05 03:49:14;;;;;;;9.18;4.85;;;8.70;99.90;;;;;;4979497;28;89379;-34
2023/06/05 03:51:39;;;;;;;11.63;7.20;;;8.70;99.90;;;;;;4980211;28;88232;-36
2023/06/05 03:54:08;;;;;;;12.77;6.32;;;8.70;99.90;;;;;;4980172;28;90126;-36
2023/06/05 03:56:34;;;;;;;10.02;6.47;;;8.70;99.90;;;;;;4976907;28;90179;-31
2023/06/05 03:59:08;;;;;;;11.88;5.97;;;8.60;99.90;;;;;;4970843;28;90350;-37
2023/06/05 04:01:38;;;;;;;8.77;5.80;;;8.60;99.90;;;;;;4979908;28;88842;-33
2023/06/05 04:04:08;;;;;;;10.85;7.18;;;8.60;99.90;;;;;;4979902;28;90058;-36
2023/06/05 04:06:34;;;;;;;8.95;5.47;;;8.60;99.90;;;;;;4979605;28;89603;-36
2023/06/05 04:09:01;;;;;;;11.00;5.90;;;8.60;99.90;;;;;;4979822;28;88797;-33
2023/06/05 04:11:26;;;;;;;9.25;6.15;;;8.70;99.90;;;;;;4979470;28;88737;-31
2023/06/05 04:13:55;;;;;;;7.65;3.97;;;8.70;99.90;;;;;;4979561;28;89877;-30
2023/06/05 04:16:20;;;;;;;;;;;8.70;99.90;;;;;;4980164;28;90555;-32
2023/06/05 04:18:46;;;;;;;7.90;5.68;;;8.80;99.90;;;;;;4985048;28;88203;-35
2023/06/05 04:21:12;;;;;;;9.20;6.35;;;8.80;99.90;;;;;;4982932;28;87845;-29
2023/06/05 04:26:36;;;;;;;7.07;4.50;;;8.90;99.90;;;;;;4961964;28;89939;-34
2023/06/05 04:29:09;;;;;;;15.02;5.38;;;9.00;99.90;;;;;;4964025;28;88363;-31
2023/06/05 04:31:35;;;;;;;8.77;6.13;;;9.00;99.90;;;;;;4963623;28;88248;-36
2023/06/05 04:34:02;;;;;;;10.38;7.05;;;9.10;99.90;;;;;;4963361;28;89249;-32
2023/06/05 04:36:28;;;;;;;11.20;6.68;;;9.30;99.90;;;;;;4963131;28;90006;-29
2023/06/05 04:38:54;;;;;;;14.75;5.75;;;9.40;99.90;;;;;;4963460;28;88911;-33
2023/06/05 04:41:21;;;;;;;10.70;6.80;;;9.50;99.90;;;;;;4963253;28;88280;-32
2023/06/05 04:43:47;;;;;;;10.48;7.90;;;9.60;99.90;;;;;;4962391;28;90106;-31
2023/06/05 04:46:13;;;;;;;12.13;6.30;;;9.80;99.90;;;;;;4945046;28;90358;-31
2023/06/05 04:48:38;;;;;;;7.32;5.47;;;9.80;99.90;;;;;;4962925;28;90189;-32
2023/06/05 04:51:04;;;;;;;11.88;6.60;;;9.90;99.90;;;;;;4963825;28;89316;-36
2023/06/05 04:53:31;;;;;;;10.30;5.10;;;10.00;99.90;;;;;;4962986;28;90459;-35
2023/06/05 04:55:59;;;;;;;12.68;6.30;;;10.10;99.90;;;;;;4962617;28;90008;-33
2023/06/05 04:58:25;;;;;;;;;;;10.20;99.90;;;;;;4963323;28;89871;-35
2023/06/05 05:00:50;;;;;;;9.82;6.20;;;10.40;99.90;;;;;;4964710;28;88020;-31
2023/06/05 05:03:17;;;;;;;7.78;5.03;;;10.50;99.90;;;;;;4962364;28;89970;-32
2023/06/05 05:05:43;;;;;;;9.00;6.60;;;10.70;99.90;;;;;;4963151;28;89639;-31
2023/06/05 05:08:08;;;;;;;11.48;6.53;;;10.80;99.90;;;;;;4962289;28;90012;-34
2023/06/05 05:10:34;;;;;;;9.65;6.85;;;10.80;99.90;;;;;;4962567;28;89204;-36
2023/06/05 05:13:01;;;;;;;11.40;6.25;;;10.90;99.90;;;;;;4962856;28;89840;-31
2023/06/05 05:15:28;;;;;;;13.70;8.20;;;11.00;99.90;;;;;;4962600;28;89582;-35
2023/06/05 05:17:56;;;;;;;14.75;6.68;;;11.10;99.90;;;;;;4962993;28;89100;-30
2023/06/05 05:20:22;;;;;;;13.48;7.03;;;11.20;99.90;;;;;;4962225;28;89139;-36
2023/06/05 05:22:48;;;;;;;8.60;6.20;;;11.30;99.90;;;;;;4962959;28;89958;-31
2023/06/05 05:25:13;;;;;;;11.48;6.57;;;11.40;99.90;;;;;;4960698;28;90022;-33
2023/06/05 05:27:39;;;;;;;10.02;5.65;;;11.40;99.90;;;;;;4963086;28;89715;-33
2023/06/05 05:30:07;;;;;;;10.00;6.65;;;11.50;99.90;;;;;;4961803;28;89425;-34
2023/06/05 05:32:32;;;;;;;16.33;6.50;;;11.70;99.90;;;;;;4962341;28;90013;-33
2023/06/05 05:34:58;;;;;;;17.58;6.60;;;11.80;99.90;;;;;;4962556;28;89950;-31
2023/06/05 05:37:25;;;;;;;8.98;6.25;;;11.90;99.90;;;;;;4961898;28;89612;-33
2023/06/05 05:39:51;;;;;;;11.00;6.22;;;12.00;99.90;;;;;;4962498;28;87680;-34
2023/06/05 05:42:17;;;;;;;8.45;6.82;;;12.20;99.90;;;;;;4962415;28;90438;-32
2023/06/05 05:44:43;;;;;;;24.45;5.80;;;12.40;99.90;;;;;;4961618;28;89144;-30
2023/06/05 05:47:10;;;;;;;9.40;5.93;;;12.40;99.90;;;;;;4962373;28;88072;-35
2023/06/05 05:49:36;;;;;;;8.93;5.97;;;12.60;99.90;;;;;;4960024;28;89351;-33
2023/06/05 05:52:02;;;;;;;8.68;6.85;;;12.70;99.90;;;;;;4959606;28;90403;-32
2023/06/05 05:54:27;;;;;;;6.45;4.88;;;12.80;99.90;;;;;;4959946;28;90470;-34
2023/06/05 05:56:56;;;;;;;10.07;5.03;;;12.90;99.90;;;;;;4960456;28;89259;-34
2023/06/05 05:59:22;;;;;;;7.45;5.05;;;13.00;99.90;;;;;;4959027;28;88265;-31
2023/06/05 06:01:48;;;;;;;7.65;5.43;;;13.10;99.90;;;;;;4960319;28;90214;-30
2023/06/05 06:04:16;;;;;;;8.90;4.57;;;13.20;99.90;;;;;;4958729;28;90425;-32
2023/06/05 06:06:42;;;;;;;9.68;6.55;;;13.40;99.90;;;;;;4959246;28;88697;-32
2023/06/05 06:09:08;;;;;;;12.93;6.03;;;13.50;99.90;;;;;;4960059;28;88869;-35
2023/06/05 06:11:36;;;;;;;8.85;4.95;;;13.70;99.90;;;;;;4959675;28;90297;-35
2023/06/05 06:14:02;;;;;;;7.55;5.43;;;13.70;99.90;;;;;;4959051;28;89918;-34
2023/06/05 06:16:27;;;;;;;6.68;5.28;;;13.70;99.90;;;;;;4959745;28;88749;-32
2023/06/05 06:18:55;;;;;;;6.85;5.55;;;13.70;99.90;;;;;;4960241;28;88875;-32
2023/06/05 06:21:20;;;;;;;9.80;5.10;;;13.80;99.90;;;;;;4968219;28;90854;-29
2023/06/05 06:23:47;;;;;;;11.10;5.72;;;13.80;99.90;;;;;;4959719;28;90646;-31
2023/06/05 06:26:14;;;;;;;8.27;5.97;;;13.80;99.90;;;;;;4940007;28;88771;-31
2023/06/05 06:28:40;;;;;;;8.95;6.07;;;14.10;99.90;;;;;;4958176;28;90413;-31
2023/06/05 06:31:07;;;;;;;7.63;5.80;;;13.80;99.90;;;;;;4958888;28;91160;-35
2023/06/05 06:33:32;;;;;;;12.45;7.38;;;13.70;99.90;;;;;;4958430;28;89862;-31
2023/06/05 06:35:58;;;;;;;7.18;5.93;;;13.60;99.90;;;;;;4958026;28;87702;-34
2023/06/05 06:38:30;;;;;;;7.10;6.15;;;13.60;99.90;;;;;;4958808;28;89143;-31
2023/06/05 06:40:59;;;;;;;7.20;5.65;;;13.90;99.90;;;;;;4958108;28;90330;-30
2023/06/05 06:43:25;;;;;;;10.10;4.60;;;14.10;99.90;;;;;;4959554;28;90176;-32
2023/06/05 06:45:52;;;;;;;7.25;5.07;;;14.00;99.90;;;;;;4959607;28;87586;-30
2023/06/05 06:48:18;;;;;;;7.70;4.75;;;14.20;99.90;;;;;;4959491;28;89638;-33
2023/06/05 06:50:44;;;;;;;6.20;4.72;;;14.50;99.90;;;;;;4958636;28;90708;-30
2023/06/05 06:53:10;;;;;;;5.78;4.45;;;14.70;99.90;;;;;;4958680;28;89747;-33
2023/06/05 06:55:36;;;;;;;6.07;4.20;;;14.80;99.90;;;;;;4959086;28;89280;-33
2023/06/05 06:58:02;;;;;;;6.10;5.45;;;14.90;99.90;;;;;;4959707;28;88902;-34
2023/06/05 07:00:27;;;;;;;6.43;4.25;;;15.10;99.90;;;;;;4958369;28;90066;-31
2023/06/05 07:02:53;;;;;;;6.97;4.43;;;15.10;99.90;;;;;;4957397;28;88628;-34
2023/06/05 07:05:20;;;;;;;8.57;5.53;;;15.30;99.90;;;;;;4958288;28;89804;-34
2023/06/05 07:07:45;;;;;;;5.47;4.97;;;15.30;99.90;;;;;;4959805;28;90100;-33
2023/06/05 07:10:11;;;;;;;5.65;4.40;;;15.10;99.90;;;;;;4958888;28;90734;-30
2023/06/05 07:12:37;;;;;;;6.60;4.40;;;15.10;99.90;;;;;;4958384;28;89656;-32
2023/06/05 07:15:03;;;;;;;8.25;6.13;;;15.40;99.90;;;;;;4959994;28;88408;-36
2023/06/05 07:17:30;;;;;;;5.38;3.92;;;15.60;99.90;;;;;;4966126;28;90443;-30
2023/06/05 07:19:57;;;;;;;9.02;5.38;;;15.60;99.90;;;;;;4958892;28;90190;-32
2023/06/05 07:22:24;;;;;;;11.25;5.72;;;15.50;99.90;;;;;;4958674;28;89555;-33
2023/06/05 07:24:50;;;;;;;6.60;5.47;;;15.80;99.90;;;;;;4958424;28;88349;-32
2023/06/05 07:27:17;;;;;;;7.35;5.38;;;15.90;99.90;;;;;;4958126;28;88692;-31
2023/06/05 07:29:42;;;;;;;8.32;5.35;;;16.10;99.90;;;;;;4959100;28;90574;-29
2023/06/05 07:32:08;;;;;;;6.65;4.80;;;16.30;99.90;;;;;;4958927;28;89704;-31
2023/06/05 07:34:34;;;;;;;6.90;5.35;;;16.30;99.90;;;;;;4957962;28;88068;-35
2023/06/05 07:37:00;;;;;;;8.02;4.78;;;16.60;99.90;;;;;;4958758;28;87717;-31
2023/06/05 07:39:26;;;;;;;9.02;6.28;;;16.40;99.90;;;;;;4957986;28;90369;-30
2023/06/05 07:41:52;;;;;;;6.97;4.53;;;16.30;99.90;;;;;;4958855;28;89555;-34
2023/06/05 07:44:19;;;;;;;7.22;3.88;;;16.30;99.90;;;;;;4959089;28;87862;-32
2023/06/05 07:46:46;;;;;;;7.28;4.35;;;16.60;99.90;;;;;;4958275;28;87763;-35
2023/06/05 07:49:12;;;;;;;6.65;4.03;;;16.80;99.90;;;;;;4958163;28;91487;-33
2023/06/05 07:51:39;;;;;;;4.57;4.15;;;16.70;99.90;;;;;;4958282;28;89984;-30
2023/06/05 07:54:07;;;;;;;12.77;4.45;;;16.80;99.90;;;;;;4946536;28;88138;-36
2023/06/05 07:56:33;;;;;;;8.95;4.93;;;16.90;99.90;;;;;;4958434;28;88148;-31
2023/06/05 07:59:02;;;;;;;4.85;3.97;;;17.00;99.90;;;;;;4958741;28;90453;-31
2023/06/05 08:01:31;;;;;;;4.72;4.20;;;16.70;99.90;;;;;;4958016;28;89172;-31
2023/06/05 08:03:58;;;;;;;4.15;3.75;;;16.90;99.90;;;;;;4959570;28;88494;-35
2023/06/05 08:06:24;;;;;;;8.70;5.13;;;17.10;99.90;;;;;;4957264;28;89659;-31
2023/06/05 08:08:51;;;;;;;5.50;3.90;;;17.20;99.90;;;;;;4958138;28;90401;-36
2023/06/05 08:11:17;;;;;;;5.00;4.50;;;17.20;99.90;;;;;;4957973;28;88395;-33
2023/06/05 08:13:42;;;;;;;3.95;3.47;;;17.40;99.90;;;;;;4958027;28;88443;-32
2023/06/05 08:16:08;;;;;;;4.80;4.40;;;17.40;99.90;;;;;;4958693;28;89861;-34
2023/06/05 08:18:34;;;;;;;3.95;3.50;;;17.50;99.90;;;;;;4957601;28;89741;-34
2023/06/05 08:20:59;;;;;;;5.60;4.22;;;17.70;99.90;;;;;;4957633;28;89503;-31
2023/06/05 08:23:26;;;;;;;7.47;5.68;;;17.80;99.90;;;;;;4957849;28;89243;-35
2023/06/05 08:25:52;;;;;;;6.05;5.15;;;18.00;99.90;;;;;;4957709;28;87751;-31
2023/06/05 08:28:18;;;;;;;5.13;3.95;;;18.00;99.90;;;;;;4958143;28;90266;-33
2023/06/05 08:30:46;;;;;;;5.90;4.05;;;18.00;99.90;;;;;;4957436;28;89303;-32
2023/06/05 08:33:12;;;;;;;6.90;3.30;;;18.10;99.90;;;;;;4957858;28;90053;-31
2023/06/05 08:35:41;;;;;;;7.32;4.45;;;18.10;99.90;;;;;;4956405;28;88626;-36
2023/06/05 08:38:07;;;;;;;5.82;4.53;;;18.10;99.90;;;;;;4957605;28;89942;-30
2023/06/05 08:40:33;;;;;;;5.45;4.60;;;17.80;99.90;;;;;;4957239;28;90252;-31
2023/06/05 08:43:02;;;;;;;4.65;4.25;;;18.00;99.90;;;;;;4957284;28;88272;-33
2023/06/05 08:45:30;;;;;;;6.13;4.68;;;18.10;99.90;;;;;;4957438;28;90198;-36
2023/06/05 08:47:59;;;;;;;9.70;4.80;;;18.30;99.90;;;;;;4957483;28;88852;-32
2023/06/05 08:50:27;;;;;;;5.63;5.03;;;18.30;99.90;;;;;;4957761;28;89238;-34
2023/06/05 08:52:56;;;;;;;7.88;4.53;;;18.30;99.90;;;;;;4958106;28;87864;-34
2023/06/05 08:55:22;;;;;;;5.60;4.72;;;18.20;99.90;;;;;;4957608;28;88913;-32
2023/06/05 08:57:48;;;;;;;5.80;5.28;;;18.40;99.90;;;;;;4957352;28;90580;-34
2023/06/05 09:00:14;;;;;;;5.28;4.78;;;18.30;99.90;;;;;;4957522;28;89736;-32
2023/06/05 09:02:47;;;;;;;6.38;5.40;;;18.60;99.90;;;;;;4957084;28;89428;-33
2023/06/05 09:05:16;;;;;;;8.20;4.97;;;18.90;99.90;;;;;;4959727;28;88787;-32
2023/06/05 09:07:42;;;;;;;6.53;4.90;;;18.60;99.90;;;;;;4960690;28;90294;-31
2023/06/05 09:10:26;;;;;;;5.20;4.13;;;18.70;99.90;;;;;;4960062;28;89831;-31
2023/06/05 09:12:58;;;;;;;8.07;5.28;;;18.70;99.90;;;;;;4961262;28;89612;-35
2023/06/05 09:15:26;;;;;;;5.22;4.45;;;18.70;99.90;;;;;;4960632;28;89277;-35
2023/06/05 09:18:07;;;;;;;;;;;18.80;99.90;;;;;;4960754;28;90642;-36
2023/06/05 09:20:34;;;;;;;4.60;3.83;;;18.80;99.90;;;;;;4961180;28;89736;-34
2023/06/05 09:23:05;;;;;;;5.60;4.38;;;19.10;99.90;;;;;;4960963;28;88089;-33
2023/06/05 09:25:48;;;;;;;7.38;4.32;;;19.40;99.90;;;;;;4942522;28;89595;-33
2023/06/05 09:28:15;;;;;;;8.15;3.92;;;19.60;99.90;;;;;;4948805;28;89042;-31
2023/06/05 09:31:01;;;;;;;6.78;5.10;;;20.00;99.90;;;;;;4959127;28;89105;-34
2023/06/05 09:33:33;;;;;;;7.07;5.00;;;19.80;99.70;;;;;;4960208;28;88516;-31
2023/06/05 09:36:10;;;;;;;5.40;3.88;;;19.80;99.90;;;;;;4959933;28;89558;-33
2023/06/05 09:38:37;;;;;;;5.72;5.18;;;20.20;99.90;;;;;;4960486;28;90342;-35
2023/06/05 09:41:07;;;;;;;4.78;4.13;;;19.70;99.90;;;;;;4960564;28;91661;-33
2023/06/05 09:43:33;;;;;;;8.32;5.43;;;19.50;97.90;;;;;;4959824;28;89792;-34
2023/06/05 09:46:05;;;;;;;4.78;4.18;;;19.50;99.90;;;;;;4960290;28;89447;-34
2023/06/05 09:48:32;;;;;;;5.70;4.63;;;19.50;96.10;;;;;;4959736;28;90385;-32
2023/06/05 09:51:08;;;;;;;7.73;5.00;;;19.30;99.90;;;;;;4959972;28;89679;-32
2023/06/05 09:53:34;;;;;;;7.22;4.50;;;19.60;99.90;;;;;;4959903;28;88811;-33
2023/06/05 09:56:02;;;;;;;6.45;4.95;;;19.40;99.90;;;;;;4959718;28;89654;-32
2023/06/05 09:58:28;;;;;;;5.50;3.78;;;19.50;99.90;;;;;;4959142;28;88912;-34
2023/06/05 10:00:59;;;;;;;9.55;5.18;;;19.60;99.90;;;;;;4959847;28;90226;-30
2023/06/05 10:03:27;;;;;;;5.55;4.90;;;19.50;99.90;;;;;;4958907;28;89789;-31
2023/06/05 10:05:53;;;;;;;6.55;4.82;;;19.90;99.90;;;;;;4960086;28;89731;-30
2023/06/05 10:08:19;;;;;;;6.80;4.07;;;19.90;99.90;;;;;;4959493;28;90137;-34
2023/06/05 10:10:46;;;;;;;5.20;4.70;;;19.70;96.80;;;;;;4958691;28;90228;-36
2023/06/05 10:13:12;;;;;;;5.05;4.55;;;19.90;99.90;;;;;;4959652;28;89217;-34
2023/06/05 10:15:40;;;;;;;4.15;3.65;;;20.10;96.80;;;;;;4959597;28;88055;-30
2023/06/05 10:18:06;;;;;;;7.60;4.38;;;20.20;98.50;;;;;;4959286;28;90748;-36
2023/06/05 10:20:35;;;;;;;7.32;3.53;;;20.10;96.40;;;;;;4958917;28;89312;-32
2023/06/05 10:23:02;;;;;;;5.82;4.43;;;20.00;99.50;;;;;;4958997;28;88629;-34
2023/06/05 10:25:28;;;;;;;4.93;4.43;;;20.10;93.20;;;;;;4941807;28;88787;-31
2023/06/05 10:28:19;;;;;;;4.13;3.50;;;19.80;89.90;;;;;;4958982;28;90842;-32
2023/06/05 10:30:45;;;;;;;7.28;3.97;;;20.00;99.90;;;;;;4959312;28;89659;-34
2023/06/05 10:33:48;;;;;;;4.45;4.05;;;20.20;99.30;;;;;;4959139;28;87905;-31
2023/06/05 10:36:58;;;;;;;4.85;4.03;;;20.30;89.20;;;;;;4959091;28;90437;-34
2023/06/05 10:39:26;;;;;;;7.85;4.40;;;20.20;87.00;;;;;;4934478;28;89082;-30
2023/06/05 10:41:51;;;;;;;6.33;4.83;;;19.90;97.50;;;;;;4959641;28;90242;-33
2023/06/05 10:44:17;;;;;;;5.82;3.95;;;19.90;93.70;;;;;;4958768;28;89784;-33
2023/06/05 10:46:43;;;;;;;4.60;4.20;;;19.70;96.90;;;;;;4958916;28;90111;-35
2023/06/05 10:49:17;;;;;;;4.80;4.28;;;19.80;95.80;;;;;;4959256;28;90221;-30
2023/06/05 10:51:49;;;;;;;7.57;4.63;;;19.90;99.90;;;;;;4958811;28;90076;-32
2023/06/05 10:54:34;;;;;;;6.28;4.13;;;20.20;99.90;;;;;;4957013;28;87626;-34
2023/06/05 10:57:03;;;;;;;7.88;5.22;;;20.30;95.80;;;;;;4958836;28;88997;-34
2023/06/05 10:59:39;;;;;;;6.40;4.53;;;19.70;97.00;;;;;;4958119;28;89044;-35
2023/06/05 11:02:05;;;;;;;4.93;4.05;;;19.90;95.20;;;;;;4958996;28;89817;-30
2023/06/05 11:04:43;;;;;;;5.35;4.85;;;20.00;93.60;;;;;;4958127;28;89329;-31
2023/06/05 11:07:21;;;;;;;8.70;3.60;;;20.10;92.90;;;;;;4958445;28;87802;-31
2023/06/05 11:10:05;;;;;;;8.07;4.68;;;20.20;93.80;;;;;;4958147;28;90056;-35
2023/06/05 11:12:40;;;;;;;4.88;3.92;;;20.00;94.10;;;;;;4958256;28;89487;-31
2023/06/05 11:15:07;;;;;;;7.60;4.82;;;20.10;98.30;;;;;;4958083;28;87645;-34
2023/06/05 11:17:34;;;;;;;8.73;4.93;;;20.40;99.40;;;;;;4959248;28;89442;-36
2023/06/05 11:20:05;;;;;;;5.50;4.68;;;20.20;94.10;;;;;;4958841;28;89610;-31
2023/06/05 11:22:31;;;;;;;5.45;4.85;;;20.10;99.90;;;;;;4958632;28;90118;-32
2023/06/05 11:25:21;;;;;;;5.95;3.80;;;20.30;98.30;;;;;;4957620;28;88499;-33
2023/06/05 11:27:55;;;;;;;4.80;4.18;;;20.10;95.20;;;;;;4957795;28;89871;-31
2023/06/05 11:30:26;;;;;;;7.38;4.65;;;20.20;98.70;;;;;;4958000;28;90843;-32
2023/06/05 11:32:57;;;;;;;4.63;4.22;;;19.90;96.40;;;;;;4957862;28;90290;-31
2023/06/05 11:35:28;;;;;;;6.25;4.13;;;19.80;98.50;;;;;;4957365;28;88005;-34
2023/06/05 11:38:13;;;;;;;5.28;4.78;;;20.00;99.90;;;;;;4958521;28;88175;-32
2023/06/05 11:40:40;;;;;;;4.88;3.80;;;19.90;99.90;;;;;;4947838;28;90741;-31
2023/06/05 11:43:13;;;;;;;4.45;3.88;;;20.00;98.20;;;;;;4958742;28;90001;-33
2023/06/05 11:45:40;;;;;;;5.93;4.45;;;20.30;99.90;;;;;;4958489;28;87781;-34
2023/06/05 11:48:13;;;;;;;4.38;3.25;;;20.10;97.20;;;;;;4958298;28;87737;-36
2023/06/05 11:50:54;;;;;;;4.72;4.15;;;20.20;99.90;;;;;;4957881;28;90333;-33
2023/06/05 11:53:20;;;;;;;9.73;4.97;;;20.30;93.30;;;;;;4958637;28;89728;-33
2023/06/05 11:58:22;;;;;;;5.07;4.65;;;20.30;82.20;;;;;;4946212;28;89946;-35
2023/06/05 12:00:48;;;;;;;5.00;3.67;;;20.20;89.90;;;;;;4957244;28;90478;-33
2023/06/05 12:03:18;;;;;;;4.20;3.80;;;20.30;99.90;;;;;;4957281;28;89775;-32
2023/06/05 12:05:44;;;;;;;4.88;3.92;;;20.40;97.90;;;;;;4940326;28;89529;-34
2023/06/05 12:08:22;;;;;;;6.18;3.45;;;20.40;90.70;;;;;;4958728;28;88488;-35
2023/06/05 12:10:48;;;;;;;5.03;3.83;;;20.40;99.90;;;;;;4958160;28;89737;-31
2023/06/05 12:13:15;;;;;;;5.50;4.22;;;20.60;99.90;;;;;;4940013;28;89519;-31
2023/06/05 12:15:40;;;;;;;4.18;3.80;;;20.40;95.90;;;;;;4958134;28;88205;-32
2023/06/05 12:18:06;;;;;;;3.78;3.45;;;20.30;92.50;;;;;;4958938;28;88715;-35
2023/06/05 12:20:39;;;;;;;4.38;3.90;;;20.50;92.20;;;;;;4958483;28;90207;-36
2023/06/05 12:23:06;;;;;;;3.85;2.97;;;20.40;85.30;;;;;;4958282;28;89359;-35
2023/06/05 12:25:32;;;;;;;6.35;4.22;;;20.30;91.90;;;;;;4957895;28;89469;-35
2023/06/05 12:27:57;;;;;;;5.35;3.83;;;20.30;92.10;;;;;;4940304;28;88360;-34
2023/06/05 12:30:23;;;;;;;4.20;3.75;;;20.30;99.90;;;;;;4957732;28;90675;-35
2023/06/05 12:32:48;;;;;;;6.15;4.25;;;20.30;96.50;;;;;;4939762;28;89338;-34
2023/06/05 12:35:22;;;;;;;4.18;3.47;;;20.30;95.10;;;;;;4957231;28;88071;-31
2023/06/05 12:37:51;;;;;;;5.43;4.53;;;20.40;92.70;;;;;;4958154;28;89034;-33
2023/06/05 12:40:21;;;;;;;4.55;4.15;;;20.30;94.40;;;;;;4960862;28;90277;-31
2023/06/05 12:42:48;;;;;;;8.00;4.95;;;20.30;96.90;;;;;;4961998;28;89872;-35
2023/06/05 12:45:15;;;;;;;5.03;3.80;;;20.30;97.90;;;;;;4959541;28;90140;-35
2023/06/05 12:47:42;;;;;;;4.80;3.72;;;20.40;99.90;;;;;;4961142;28;88313;-31
2023/06/05 12:50:11;;;;;;;6.03;4.82;;;20.40;99.20;;;;;;4959008;28;89952;-33
2023/06/05 12:52:38;;;;;;;4.57;3.47;;;20.50;97.90;;;;;;4960666;28;90692;-34
2023/06/05 12:55:05;;;;;;;3.70;3.33;;;20.50;93.70;;;;;;4961376;28;89343;-32
2023/06/05 12:57:32;;;;;;;4.40;3.97;;;20.50;97.30;;;;;;4960424;28;90735;-32